createdAt,value
2022-10-12T00:00:22.755Z,9.67
2022-10-12T00:03:13.211Z,9.43
2022-10-12T00:05:41.538Z,10.10
2022-10-12T00:08:09.628Z,9.90
2022-10-12T00:10:41.992Z,9.93
2022-10-12T00:13:10.743Z,9.90
2022-10-12T00:15:39.541Z,10.07
2022-10-12T00:18:07.434Z,10.77
2022-10-12T00:20:35.718Z,11.00
2022-10-12T00:23:03.403Z,10.50
2022-10-12T00:25:31.057Z,10.90
2022-10-12T00:28:02.813Z,10.43
2022-10-12T00:30:30.817Z,9.30
2022-10-12T00:33:00.867Z,9.80
2022-10-12T00:35:32.251Z,10.53
2022-10-12T00:38:01.701Z,10.10
2022-10-12T00:40:30.366Z,9.37
2022-10-12T00:42:58.006Z,10.77
2022-10-12T00:45:27.747Z,11.43
2022-10-12T00:47:57.700Z,9.87
2022-10-12T00:50:30.298Z,10.67
2022-10-12T00:53:06.663Z,10.10
2022-10-12T00:55:38.503Z,10.07
2022-10-12T00:58:08.443Z,8.87
2022-10-12T01:00:37.405Z,9.70
2022-10-12T01:03:06.911Z,8.97
2022-10-12T01:05:34.600Z,8.17
2022-10-12T01:08:04.771Z,8.40
2022-10-12T01:10:32.465Z,10.40
2022-10-12T01:13:02.836Z,10.33
2022-10-12T01:15:34.607Z,8.82
2022-10-12T01:18:13.806Z,9.57
2022-10-12T01:20:58.230Z,8.90
2022-10-12T01:23:44.184Z,7.97
2022-10-12T01:26:30.283Z,7.27
2022-10-12T01:29:10.377Z,8.07
2022-10-12T01:31:42.316Z,8.07
2022-10-12T01:34:22.869Z,9.03
2022-10-12T01:36:55.046Z,8.70
2022-10-12T01:39:26.273Z,7.77
2022-10-12T01:41:58.979Z,7.38
2022-10-12T01:44:27.218Z,7.73
2022-10-12T01:46:55.700Z,6.80
2022-10-12T01:49:28.490Z,8.97
2022-10-12T01:51:56.470Z,9.80
2022-10-12T01:54:42.671Z,8.27
2022-10-12T01:57:10.557Z,7.10
2022-10-12T01:59:55.383Z,7.90
2022-10-12T02:02:23.154Z,7.80
2022-10-12T02:04:54.790Z,8.37
2022-10-12T02:07:51.897Z,9.05
2022-10-12T02:10:25.264Z,8.63
2022-10-12T02:12:53.612Z,7.77
2022-10-12T02:15:23.402Z,8.67
2022-10-12T02:17:52.006Z,9.20
2022-10-12T02:20:24.195Z,7.20
2022-10-12T02:23:12.380Z,8.50
2022-10-12T02:25:40.894Z,8.67
2022-10-12T02:28:10.651Z,7.87
2022-10-12T02:30:39.706Z,8.70
2022-10-12T02:33:14.076Z,8.30
2022-10-12T02:35:52.294Z,8.37
2022-10-12T02:38:23.286Z,7.00
2022-10-12T02:40:52.448Z,7.87
2022-10-12T02:43:29.801Z,8.83
2022-10-12T02:45:59.364Z,9.07
2022-10-12T02:48:27.680Z,8.33
2022-10-12T02:50:56.457Z,7.80
2022-10-12T02:53:25.352Z,7.63
2022-10-12T02:55:54.340Z,6.50
2022-10-12T02:58:21.963Z,6.90
2022-10-12T03:00:49.930Z,6.73
2022-10-12T03:03:17.772Z,8.37
2022-10-12T03:05:46.355Z,9.70
2022-10-12T03:08:14.130Z,12.80
2022-10-12T03:10:41.763Z,13.43
2022-10-12T03:13:10.592Z,9.50
2022-10-12T03:16:04.452Z,7.93
2022-10-12T03:18:32.595Z,9.00
2022-10-12T03:21:00.798Z,10.57
2022-10-12T03:23:28.533Z,9.57
2022-10-12T03:25:57.180Z,10.83
2022-10-12T03:28:25.105Z,9.80
2022-10-12T03:30:52.802Z,11.20
2022-10-12T03:33:20.500Z,9.03
2022-10-12T03:35:48.408Z,9.20
2022-10-12T03:38:16.580Z,10.03
2022-10-12T03:40:45.081Z,8.13
2022-10-12T03:43:14.682Z,9.30
2022-10-12T03:45:42.516Z,10.37
2022-10-12T03:48:11.690Z,9.83
2022-10-12T03:50:40.217Z,9.17
2022-10-12T03:53:07.928Z,10.67
2022-10-12T03:55:35.876Z,9.70
2022-10-12T03:58:03.684Z,9.30
2022-10-12T04:00:31.558Z,8.97
2022-10-12T04:02:59.174Z,8.37
2022-10-12T04:05:26.848Z,9.47
2022-10-12T04:07:54.925Z,9.27
2022-10-12T04:10:22.599Z,8.77
2022-10-12T04:12:50.338Z,8.77
2022-10-12T04:15:18.285Z,8.93
2022-10-12T04:17:45.930Z,7.37
2022-10-12T04:20:13.808Z,9.40
2022-10-12T04:22:41.661Z,9.73
2022-10-12T04:25:10.650Z,8.77
2022-10-12T04:27:38.676Z,10.30
2022-10-12T04:30:06.972Z,9.27
2022-10-12T04:32:34.700Z,10.87
2022-10-12T04:35:02.532Z,9.13
2022-10-12T04:37:30.190Z,9.27
2022-10-12T04:39:58.017Z,10.40
2022-10-12T04:42:25.649Z,10.87
2022-10-12T04:44:53.502Z,10.07
2022-10-12T04:47:21.154Z,10.03
2022-10-12T04:49:48.935Z,10.03
2022-10-12T04:52:16.807Z,11.10
2022-10-12T04:54:44.785Z,11.23
2022-10-12T04:57:12.458Z,9.53
2022-10-12T04:59:40.321Z,10.33
2022-10-12T05:02:08.032Z,10.23
2022-10-12T05:07:08.544Z,14.43
2022-10-12T05:09:36.175Z,13.40
2022-10-12T05:12:04.020Z,11.33
2022-10-12T05:14:35.052Z,10.93
2022-10-12T05:17:04.360Z,9.53
2022-10-12T05:19:32.158Z,18.67
2022-10-12T05:22:00.244Z,22.73
2022-10-12T05:24:28.693Z,22.70
2022-10-12T05:26:56.891Z,17.83
2022-10-12T05:29:24.535Z,10.77
2022-10-12T05:31:52.446Z,12.07
2022-10-12T05:34:20.315Z,15.10
2022-10-12T05:36:48.402Z,17.88
2022-10-12T05:39:16.003Z,45.28
2022-10-12T05:41:43.785Z,37.72
2022-10-12T05:44:11.466Z,26.80
2022-10-12T05:46:39.260Z,39.03
2022-10-12T05:49:07.993Z,73.65
2022-10-12T05:51:35.874Z,13.02
2022-10-12T05:54:03.490Z,12.05
2022-10-12T05:56:31.516Z,22.58
2022-10-12T05:58:59.208Z,10.77
2022-10-12T06:01:27.064Z,12.23
2022-10-12T06:03:54.916Z,12.20
2022-10-12T06:06:23.153Z,12.38
2022-10-12T06:08:50.787Z,13.70
2022-10-12T06:11:18.527Z,14.48
2022-10-12T06:13:46.089Z,15.45
2022-10-12T06:16:13.934Z,13.40
2022-10-12T06:18:41.671Z,17.13
2022-10-12T06:21:32.070Z,17.15
2022-10-12T06:23:57.295Z,12.40
2022-10-12T06:26:26.302Z,12.20
2022-10-12T06:28:53.948Z,19.70
2022-10-12T06:31:22.223Z,12.52
2022-10-12T06:33:51.021Z,30.27
2022-10-12T06:36:18.951Z,29.05
2022-10-12T06:38:46.635Z,25.13
2022-10-12T06:41:14.474Z,10.85
2022-10-12T06:43:42.106Z,9.55
2022-10-12T06:46:10.080Z,9.48
2022-10-12T06:48:37.752Z,11.13
2022-10-12T06:51:05.958Z,9.40
2022-10-12T06:53:35.097Z,9.25
2022-10-12T06:56:09.553Z,8.80
2022-10-12T06:58:37.453Z,7.80
2022-10-12T07:01:05.927Z,7.88
2022-10-12T07:03:34.277Z,8.07
2022-10-12T07:06:09.743Z,7.97
2022-10-12T07:08:38.019Z,9.30
2022-10-12T07:11:07.093Z,8.73
2022-10-12T07:13:35.263Z,10.95
2022-10-12T07:16:03.037Z,10.43
2022-10-12T07:18:31.816Z,11.18
2022-10-12T07:20:59.923Z,10.35
2022-10-12T07:23:28.620Z,11.25
2022-10-12T07:25:56.391Z,10.85
2022-10-12T07:28:24.739Z,11.63
2022-10-12T07:30:53.094Z,13.77
2022-10-12T07:33:20.630Z,12.80
2022-10-12T07:36:12.851Z,14.07
2022-10-12T07:38:44.774Z,16.38
2022-10-12T07:41:12.872Z,16.67
2022-10-12T07:43:40.465Z,16.80
2022-10-12T07:46:08.799Z,18.52
2022-10-12T07:48:37.915Z,13.32
2022-10-12T07:51:06.337Z,9.98
2022-10-12T07:53:34.719Z,9.57
2022-10-12T07:56:03.197Z,9.48
2022-10-12T07:58:30.839Z,9.50
2022-10-12T08:01:04.826Z,9.80
2022-10-12T08:03:32.387Z,9.43
2022-10-12T08:06:00.171Z,8.88
2022-10-12T08:08:27.767Z,9.00
2022-10-12T08:11:01.182Z,9.15
2022-10-12T08:13:28.821Z,8.98
2022-10-12T08:15:57.111Z,8.63
2022-10-12T08:18:24.681Z,9.70
2022-10-12T08:20:55.167Z,9.70
2022-10-12T08:23:22.726Z,9.45
2022-10-12T08:25:54.390Z,8.98
2022-10-12T08:28:22.135Z,8.85
2022-10-12T08:30:50.161Z,9.52
2022-10-12T08:33:18.514Z,9.65
2022-10-12T08:35:47.818Z,8.75
2022-10-12T08:38:15.942Z,8.73
2022-10-12T08:40:50.699Z,9.75
2022-10-12T08:43:36.248Z,9.90
2022-10-12T08:46:04.979Z,9.05
2022-10-12T08:48:52.157Z,9.90
2022-10-12T08:51:24.138Z,10.20
2022-10-12T08:54:03.467Z,9.90
2022-10-12T08:56:49.696Z,10.38
2022-10-12T08:59:18.607Z,10.80
2022-10-12T09:02:04.935Z,10.75
2022-10-12T09:04:35.773Z,10.60
2022-10-12T09:09:36.291Z,10.73
2022-10-12T09:12:23.922Z,11.18
2022-10-12T09:14:54.808Z,11.23
2022-10-12T09:17:27.328Z,10.90
2022-10-12T09:20:01.915Z,11.43
2022-10-12T09:22:31.017Z,11.93
2022-10-12T09:24:59.922Z,10.60
2022-10-12T09:27:30.749Z,9.30
2022-10-12T09:30:03.397Z,8.73
2022-10-12T09:32:41.484Z,9.23
2022-10-12T09:35:11.962Z,8.48
2022-10-12T09:37:40.094Z,10.32
2022-10-12T09:40:16.079Z,10.32
2022-10-12T09:42:45.790Z,10.20
2022-10-12T09:45:22.852Z,10.88
2022-10-12T09:48:09.420Z,15.25
2022-10-12T09:50:57.006Z,17.73
2022-10-12T09:53:27.493Z,11.98
2022-10-12T09:55:57.243Z,10.60
2022-10-12T09:58:26.149Z,11.82
2022-10-12T10:01:16.467Z,17.40
2022-10-12T10:03:44.174Z,14.40
2022-10-12T10:06:11.978Z,13.32
2022-10-12T10:08:46.070Z,12.00
2022-10-12T10:11:15.766Z,15.70
2022-10-12T10:13:53.977Z,13.90
2022-10-12T10:16:24.040Z,9.65
2022-10-12T10:18:54.655Z,10.00
2022-10-12T10:21:31.259Z,10.15
2022-10-12T10:24:00.703Z,9.70
2022-10-12T10:26:29.456Z,8.55
2022-10-12T10:29:17.264Z,8.27
2022-10-12T10:31:46.502Z,9.45
2022-10-12T10:34:16.918Z,8.07
2022-10-12T10:36:56.011Z,7.60
2022-10-12T10:39:28.309Z,7.75
2022-10-12T10:41:56.275Z,7.32
2022-10-12T10:44:29.310Z,7.80
2022-10-12T10:46:59.438Z,7.32
2022-10-12T10:49:30.817Z,8.20
2022-10-12T10:51:59.808Z,8.05
2022-10-12T10:54:29.699Z,6.90
2022-10-12T10:57:00.569Z,6.60
2022-10-12T10:59:44.719Z,6.38
2022-10-12T11:02:16.917Z,6.18
2022-10-12T11:04:46.607Z,6.53
2022-10-12T11:07:22.168Z,7.10
2022-10-12T11:09:52.537Z,8.60
2022-10-12T11:12:22.121Z,7.50
2022-10-12T11:14:51.815Z,6.78
2022-10-12T11:17:32.829Z,7.15
2022-10-12T11:20:19.923Z,6.93
2022-10-12T11:22:49.990Z,6.50
2022-10-12T11:25:30.969Z,6.72
2022-10-12T11:30:28.550Z,6.45
2022-10-12T11:33:02.099Z,7.32
2022-10-12T11:35:32.557Z,6.53
2022-10-12T11:38:02.506Z,7.05
2022-10-12T11:43:21.904Z,6.10
2022-10-12T11:45:51.537Z,6.40
2022-10-12T11:48:27.310Z,7.00
2022-10-12T11:51:02.886Z,6.28
2022-10-12T11:53:44.666Z,5.90
2022-10-12T11:56:18.271Z,7.23
2022-10-12T11:59:00.592Z,6.68
2022-10-12T12:01:36.000Z,6.07
2022-10-12T12:04:29.093Z,6.75
2022-10-12T12:06:55.656Z,12.25
2022-10-12T12:09:37.356Z,11.02
2022-10-12T12:12:13.039Z,11.07
2022-10-12T12:14:56.229Z,7.00
2022-10-12T12:17:29.441Z,8.68
2022-10-12T12:19:59.892Z,7.20
2022-10-12T12:22:31.043Z,7.05
2022-10-12T12:24:58.709Z,6.18
2022-10-12T12:27:45.027Z,6.88
2022-10-12T12:30:15.796Z,5.80
2022-10-12T12:32:48.158Z,6.00
2022-10-12T12:35:38.905Z,6.95
2022-10-12T12:38:08.929Z,7.05
2022-10-12T12:40:36.739Z,6.78
2022-10-12T12:43:20.830Z,6.30
2022-10-12T12:46:02.425Z,6.38
2022-10-12T12:50:59.073Z,7.25
2022-10-12T12:53:28.896Z,7.43
2022-10-12T12:56:03.915Z,6.85
2022-10-12T12:58:43.935Z,8.00
2022-10-12T13:01:24.432Z,10.57
2022-10-12T13:04:07.797Z,11.25
2022-10-12T13:07:02.692Z,8.15
2022-10-12T13:09:45.605Z,7.70
2022-10-12T13:12:25.915Z,7.13
2022-10-12T13:14:56.653Z,7.28
2022-10-12T13:17:34.386Z,7.95
2022-10-12T13:20:23.373Z,7.63
2022-10-12T13:22:53.465Z,6.20
2022-10-12T13:25:27.186Z,6.03
2022-10-12T13:27:55.693Z,5.57
2022-10-12T13:30:29.440Z,5.20
2022-10-12T13:33:17.596Z,4.88
2022-10-12T13:35:53.828Z,5.18
2022-10-12T13:38:23.156Z,5.18
2022-10-12T13:41:02.479Z,5.28
2022-10-12T13:43:39.561Z,4.70
2022-10-12T13:46:07.662Z,5.50
2022-10-12T13:48:58.178Z,6.55
2022-10-12T13:51:24.574Z,6.25
2022-10-12T13:53:52.755Z,7.18
2022-10-12T13:56:21.707Z,15.77
2022-10-12T13:58:53.315Z,9.90
2022-10-12T14:01:21.012Z,5.63
2022-10-12T14:03:48.911Z,7.40
2022-10-12T14:06:25.492Z,6.90
2022-10-12T14:08:53.349Z,7.60
2022-10-12T14:11:21.190Z,6.88
2022-10-12T14:13:49.708Z,7.13
2022-10-12T14:16:19.196Z,7.03
2022-10-12T14:18:52.231Z,19.38
2022-10-12T14:21:25.591Z,7.03
2022-10-12T14:24:11.901Z,6.32
2022-10-12T14:26:40.818Z,5.50
2022-10-12T14:29:28.375Z,5.35
2022-10-12T14:31:57.282Z,5.93
2022-10-12T14:34:28.454Z,15.52
2022-10-12T14:37:14.734Z,10.45
2022-10-12T14:39:43.609Z,13.95
2022-10-12T14:42:23.400Z,12.80
2022-10-12T14:44:51.442Z,19.50
2022-10-12T14:47:26.986Z,12.63
2022-10-12T14:49:56.672Z,7.95
2022-10-12T14:52:42.970Z,6.80
2022-10-12T14:55:16.862Z,7.35
2022-10-12T14:57:44.854Z,5.95
2022-10-12T15:00:22.297Z,8.05
2022-10-12T15:02:50.369Z,6.90
2022-10-12T15:05:21.258Z,7.00
2022-10-12T15:07:49.481Z,9.33
2022-10-12T15:10:18.481Z,6.78
2022-10-12T15:12:46.135Z,7.55
2022-10-12T15:15:35.424Z,8.77
2022-10-12T15:18:03.215Z,13.60
2022-10-12T15:20:32.107Z,13.55
2022-10-12T15:23:00.115Z,20.15
2022-10-12T15:25:36.078Z,24.20
2022-10-12T15:28:04.536Z,16.90
2022-10-12T15:30:33.258Z,16.27
2022-10-12T15:33:00.900Z,17.42
2022-10-12T15:35:33.867Z,18.80
2022-10-12T15:38:01.510Z,21.13
2022-10-12T15:40:30.709Z,24.10
2022-10-12T15:42:58.625Z,18.10
2022-10-12T15:45:32.235Z,22.02
2022-10-12T15:48:00.212Z,22.23
2022-10-12T15:50:29.886Z,28.83
2022-10-12T15:52:57.679Z,25.67
2022-10-12T15:55:27.481Z,27.52
2022-10-12T15:57:55.514Z,27.33
2022-10-12T16:00:26.072Z,28.10
2022-10-12T16:02:54.340Z,26.13
2022-10-12T16:05:35.642Z,14.68
2022-10-12T16:08:04.248Z,15.27
2022-10-12T16:10:33.313Z,16.77
2022-10-12T16:13:00.957Z,27.55
2022-10-12T16:15:31.121Z,29.55
2022-10-12T16:17:59.260Z,35.17
2022-10-12T16:20:27.730Z,33.00
2022-10-12T16:22:56.123Z,34.72
2022-10-12T16:25:24.952Z,40.08
2022-10-12T16:27:53.219Z,32.92
2022-10-12T16:30:22.273Z,41.38
2022-10-12T16:32:49.893Z,41.28
2022-10-12T16:35:17.943Z,38.15
2022-10-12T16:37:45.516Z,42.30
2022-10-12T16:40:15.532Z,48.33
2022-10-12T16:42:43.479Z,56.55
2022-10-12T16:45:11.755Z,48.38
2022-10-12T16:47:42.810Z,54.20
2022-10-12T16:50:11.091Z,51.17
2022-10-12T16:52:38.955Z,42.47
2022-10-12T16:55:07.093Z,40.75
2022-10-12T16:57:34.763Z,42.10
2022-10-12T17:00:02.770Z,39.50
2022-10-12T17:02:31.445Z,43.33
2022-10-12T17:04:59.262Z,42.33
2022-10-12T17:07:26.930Z,46.17
2022-10-12T17:09:57.779Z,45.88
2022-10-12T17:12:26.249Z,44.25
2022-10-12T17:14:54.160Z,42.08
2022-10-12T17:17:22.013Z,38.88
2022-10-12T17:19:50.224Z,43.20
2022-10-12T17:22:18.326Z,57.75
2022-10-12T17:24:46.456Z,56.50
2022-10-12T17:27:14.958Z,46.60
2022-10-12T17:29:43.474Z,51.72
2022-10-12T17:32:11.973Z,52.35
2022-10-12T17:34:42.662Z,40.13
2022-10-12T17:37:13.547Z,44.60
2022-10-12T17:39:48.343Z,108.60
2022-10-12T17:42:16.098Z,55.40
2022-10-12T17:44:44.312Z,48.03
2022-10-12T17:47:11.931Z,44.42
2022-10-12T17:49:39.795Z,37.25
2022-10-12T17:52:08.257Z,34.17
2022-10-12T17:54:36.338Z,42.85
2022-10-12T17:57:04.593Z,37.15
2022-10-12T17:59:32.691Z,31.83
2022-10-12T18:02:01.560Z,46.00
2022-10-12T18:04:29.326Z,59.20
2022-10-12T18:06:57.128Z,57.08
2022-10-12T18:09:24.838Z,35.60
2022-10-12T18:11:54.386Z,34.80
2022-10-12T18:14:22.710Z,33.55
2022-10-12T18:16:50.224Z,31.60
2022-10-12T18:19:17.845Z,32.63
2022-10-12T18:21:45.630Z,35.05
2022-10-12T18:24:17.976Z,31.88
2022-10-12T18:26:46.763Z,27.83
2022-10-12T18:29:19.194Z,29.35
2022-10-12T18:31:46.939Z,32.47
2022-10-12T18:34:14.825Z,31.10
2022-10-12T18:36:43.981Z,25.48
2022-10-12T18:39:11.924Z,27.95
2022-10-12T18:41:39.607Z,26.60
2022-10-12T18:44:09.136Z,26.50
2022-10-12T18:46:37.532Z,33.00
2022-10-12T18:49:09.085Z,28.45
2022-10-12T18:51:38.517Z,25.10
2022-10-12T18:54:06.722Z,25.58
2022-10-12T18:56:53.926Z,39.72
2022-10-12T18:59:21.970Z,39.00
2022-10-12T19:01:49.734Z,32.75
2022-10-12T19:04:17.948Z,30.38
2022-10-12T19:06:46.022Z,26.10
2022-10-12T19:09:14.305Z,21.83
2022-10-12T19:11:42.158Z,22.88
2022-10-12T19:14:13.890Z,25.08
2022-10-12T19:16:42.295Z,28.75
2022-10-12T19:19:16.911Z,26.98
2022-10-12T19:21:47.835Z,56.03
2022-10-12T19:24:15.906Z,48.95
2022-10-12T19:26:43.933Z,42.90
2022-10-12T19:29:11.947Z,42.45
2022-10-12T19:31:41.309Z,42.00
2022-10-12T19:34:11.959Z,42.08
2022-10-12T19:36:40.070Z,33.38
2022-10-12T19:39:12.257Z,35.72
2022-10-12T19:41:40.052Z,27.35
2022-10-12T19:44:08.994Z,28.63
2022-10-12T19:46:36.674Z,31.88
2022-10-12T19:49:04.425Z,31.98
2022-10-12T19:51:32.866Z,31.95
2022-10-12T19:54:01.835Z,35.30
2022-10-12T19:56:29.764Z,31.15
2022-10-12T19:58:58.014Z,30.77
2022-10-12T20:01:27.860Z,26.27
2022-10-12T20:03:55.504Z,30.08
2022-10-12T20:06:24.607Z,29.67
2022-10-12T20:08:53.023Z,28.02
2022-10-12T20:11:24.716Z,21.85
2022-10-12T20:13:53.264Z,21.02
2022-10-12T20:16:22.170Z,22.15
2022-10-12T20:18:50.586Z,30.67
2022-10-12T20:21:19.960Z,32.40
2022-10-12T20:23:48.114Z,26.40
2022-10-12T20:26:18.445Z,28.40
2022-10-12T20:28:46.308Z,49.97
2022-10-12T20:31:14.551Z,38.63
2022-10-12T20:33:42.231Z,98.78
2022-10-12T20:36:11.544Z,60.77
2022-10-12T20:38:39.440Z,26.20
2022-10-12T20:41:11.679Z,21.98
2022-10-12T20:43:40.474Z,29.55
2022-10-12T20:46:11.061Z,33.47
2022-10-12T20:48:40.093Z,30.92
2022-10-12T20:51:08.549Z,29.30
2022-10-12T20:53:37.735Z,33.10
2022-10-12T20:56:06.848Z,31.80
2022-10-12T20:58:34.480Z,33.37
2022-10-12T21:01:02.921Z,46.22
2022-10-12T21:03:30.830Z,39.70
2022-10-12T21:06:02.044Z,30.48
2022-10-12T21:08:29.685Z,73.68
2022-10-12T21:10:57.642Z,28.40
2022-10-12T21:13:25.191Z,28.65
2022-10-12T21:15:54.145Z,21.70
2022-10-12T21:18:22.098Z,23.83
2022-10-12T21:20:56.737Z,24.60
2022-10-12T21:23:25.148Z,25.97
2022-10-12T21:25:53.074Z,24.85
2022-10-12T21:28:21.133Z,25.88
2022-10-12T21:30:49.204Z,25.87
2022-10-12T21:33:18.620Z,23.13
2022-10-12T21:35:46.283Z,21.97
2022-10-12T21:38:14.142Z,20.40
2022-10-12T21:40:41.751Z,25.77
2022-10-12T21:43:09.261Z,25.63
2022-10-12T21:45:37.229Z,24.37
2022-10-12T21:48:04.861Z,23.73
2022-10-12T21:50:34.571Z,27.38
2022-10-12T21:53:02.337Z,20.80
2022-10-12T21:55:30.528Z,22.33
2022-10-12T21:57:58.074Z,29.83
2022-10-12T22:00:26.986Z,82.67
2022-10-12T22:02:56.053Z,49.55
2022-10-12T22:05:26.040Z,28.70
2022-10-12T22:07:53.847Z,24.05
2022-10-12T22:10:21.608Z,26.58
2022-10-12T22:12:49.370Z,25.07
2022-10-12T22:15:17.325Z,80.80
2022-10-12T22:17:44.995Z,48.30
2022-10-12T22:20:13.093Z,33.33
2022-10-12T22:22:46.481Z,22.73
2022-10-12T22:25:14.265Z,22.93
2022-10-12T22:27:42.223Z,22.33
2022-10-12T22:30:10.372Z,22.77
2022-10-12T22:32:38.114Z,20.23
2022-10-12T22:35:06.179Z,25.70
2022-10-12T22:37:34.060Z,38.37
2022-10-12T22:40:02.235Z,24.20
2022-10-12T22:42:30.258Z,21.67
2022-10-12T22:45:00.200Z,20.40
2022-10-12T22:47:28.001Z,17.20
2022-10-12T22:49:57.123Z,36.80
2022-10-12T22:52:25.047Z,56.40
2022-10-12T22:54:52.785Z,23.47
2022-10-12T22:57:20.516Z,21.00
2022-10-12T22:59:50.187Z,69.03
2022-10-12T23:02:18.206Z,48.13
2022-10-12T23:04:48.009Z,20.53
2022-10-12T23:07:16.131Z,22.23
2022-10-12T23:09:44.553Z,20.07
2022-10-12T23:12:12.238Z,21.57
2022-10-12T23:14:40.261Z,23.00
2022-10-12T23:17:07.847Z,23.20
2022-10-12T23:19:35.404Z,20.80
2022-10-12T23:22:03.223Z,18.97
2022-10-12T23:24:30.808Z,19.13
2022-10-12T23:26:58.458Z,23.30
2022-10-12T23:29:44.810Z,25.30
2022-10-12T23:32:13.555Z,27.33
2022-10-12T23:34:41.525Z,24.30
2022-10-12T23:37:09.414Z,28.00
2022-10-12T23:39:37.029Z,22.83
2022-10-12T23:42:05.229Z,27.17
2022-10-12T23:44:32.871Z,24.43
2022-10-12T23:47:00.451Z,25.17
2022-10-12T23:49:28.244Z,24.57
2022-10-12T23:52:01.840Z,20.60
2022-10-12T23:54:48.286Z,20.80
2022-10-12T23:57:41.565Z,21.83
